Time;durP1;ratioP1;P1;durP2;ratioP2;P2;SDS_P1;SDS_P2;PMS_P1;PMS_P2;Temp;Humidity;BMP_temperature;BMP_pressure;BME280_temperature;BME280_humidity;BME280_pressure;Samples;Min_cycle;Max_cycle;Signal;HPM_P1;HPM_P2
2022/09/04 00:02:56;;;;;;;;;;;13.60;99.90;;;12.51;100.00;95742.63;10482007;28;2536;-69
2022/09/04 00:07:59;;;;;;;;;;;13.50;99.90;;;12.51;100.00;95752.59;10482265;28;3326;-68
2022/09/04 00:13:02;;;;;;;;;;;13.60;99.90;;;12.52;100.00;95754.19;10479702;28;2659;-69
2022/09/04 00:18:06;;;;;;;;;;;13.60;99.90;;;12.44;100.00;95745.66;10482322;28;3330;-69
2022/09/04 00:23:08;;;;;;;;;;;13.50;99.90;;;12.38;100.00;95741.41;10486093;28;2460;-71
2022/09/04 00:28:12;;;;;;;;;;;13.50;99.90;;;12.39;100.00;95742.19;10484604;28;3279;-69
2022/09/04 00:33:14;;;;;;;;;;;13.40;99.90;;;12.38;100.00;95743.28;10486314;28;3319;-68
2022/09/04 00:38:17;;;;;;;;;;;13.40;99.90;;;12.37;100.00;95742.50;10479410;28;3304;-68
2022/09/04 00:43:20;;;;;;;;;;;13.40;99.90;;;12.40;100.00;95751.91;10481874;28;3279;-68
2022/09/04 00:48:23;;;;;;;;;;;13.50;99.90;;;12.51;100.00;95744.50;10482119;28;3715;-67
2022/09/04 00:53:27;;;;;;;;;;;13.40;99.90;;;12.70;100.00;95753.47;10482378;28;3296;-67
2022/09/04 00:58:29;;;;;;;;;;;13.50;99.90;;;12.71;100.00;95763.16;10481597;28;2471;-67
2022/09/04 01:03:32;;;;;;;;;;;13.70;99.90;;;12.76;100.00;95765.81;10481151;28;3625;-67
2022/09/04 01:08:39;;;;;;;;;;;13.70;99.90;;;12.77;100.00;95762.00;10466220;28;3390;-68
2022/09/04 01:13:42;;;;;;;;;;;13.70;99.90;;;12.90;100.00;95772.09;10479539;28;3256;-68
2022/09/04 01:18:45;;;;;;;;;;;13.80;99.90;;;13.04;100.00;95768.69;10482774;28;3461;-66
2022/09/04 01:23:47;;;;;;;;;;;13.80;99.90;;;13.22;100.00;95768.75;10480174;28;3391;-68
2022/09/04 01:28:50;;;;;;;;;;;14.00;99.90;;;13.30;100.00;95769.25;10478003;28;3331;-68
2022/09/04 01:33:53;;;;;;;;;;;14.10;99.90;;;13.33;100.00;95766.75;10477024;28;2476;-68
2022/09/04 01:38:56;;;;;;;;;;;14.10;99.90;;;13.33;100.00;95774.84;10479546;28;2586;-67
2022/09/04 01:44:00;;;;;;;;;;;14.30;99.90;;;13.47;100.00;95780.31;10480303;28;3445;-71
2022/09/04 01:49:03;;;;;;;;;;;14.20;99.90;;;13.64;100.00;95771.72;10484361;28;2487;-71
2022/09/04 01:54:06;;;;;;;;;;;14.30;99.90;;;13.77;100.00;95774.47;10482159;28;2484;-70
2022/09/04 01:59:09;;;;;;;;;;;14.50;99.90;;;13.77;100.00;95776.38;10486594;28;2423;-72
2022/09/04 02:04:17;;;;;;;;;;;14.50;99.90;;;13.76;100.00;95778.28;10460643;28;3470;-72
2022/09/04 02:09:20;;;;;;;;;;;14.60;99.90;;;13.79;100.00;95768.78;10484422;28;3314;-70
2022/09/04 02:14:23;;;;;;;;;;;14.60;99.90;;;13.78;100.00;95769.88;10487177;28;2469;-70
2022/09/04 02:19:25;;;;;;;;;;;14.70;99.90;;;13.85;100.00;95775.69;10485403;28;3346;-71
2022/09/04 02:24:28;;;;;;;;;;;14.70;99.90;;;13.90;100.00;95772.13;10481698;28;3277;-70
2022/09/04 02:29:31;;;;;;;;;;;14.70;99.90;;;13.98;100.00;95776.84;10487034;28;3339;-69
2022/09/04 02:34:37;;;;;;;;;;;;;;;14.14;100.00;95777.44;10466880;28;2368;-72
2022/09/04 02:39:39;;;;;;;;;;;14.90;99.90;;;14.13;100.00;95776.63;10483232;28;3284;-70
2022/09/04 02:44:43;;;;;;;;;;;14.90;99.90;;;14.19;100.00;95774.66;10485307;28;3354;-74
2022/09/04 02:49:47;;;;;;;;;;;15.00;99.90;;;14.14;100.00;95785.53;10488224;28;3366;-75
2022/09/04 02:54:51;;;;;;;;;;;15.00;99.90;;;14.10;100.00;95771.78;10487216;28;3252;-71
2022/09/04 02:59:54;;;;;;;;;;;14.90;99.90;;;14.00;100.00;95775.47;10483934;28;3320;-71
2022/09/04 03:04:57;;;;;;;;;;;14.90;99.90;;;14.05;100.00;95775.38;10482652;28;2651;-71
2022/09/04 03:09:59;;;;;;;;;;;14.90;99.90;;;13.90;100.00;95783.75;10486630;28;3339;-69
2022/09/04 03:15:07;;;;;;;;;;;14.80;99.90;;;13.81;100.00;95785.50;10485378;28;3348;-70
2022/09/04 03:20:10;;;;;;;;;;;14.80;99.90;;;13.78;100.00;95792.28;10492252;28;3454;-70
2022/09/04 03:25:12;;;;;;;;;;;14.70;99.90;;;13.58;100.00;95791.78;10484478;28;3307;-70
2022/09/04 03:30:15;;;;;;;;;;;14.60;99.90;;;13.41;100.00;95784.19;10485193;28;3259;-69
2022/09/04 03:35:18;;;;;;;;;;;14.40;99.90;;;13.31;100.00;95798.63;10485825;28;2440;-69
2022/09/04 03:40:21;;;;;;;;;;;14.30;99.90;;;13.34;100.00;95800.75;10463282;28;2501;-72
2022/09/04 03:45:24;;;;;;;;;;;14.20;99.90;;;13.48;100.00;95801.63;10482968;28;3343;-71
2022/09/04 03:50:27;;;;;;;;;;;14.30;99.90;;;13.51;100.00;95802.94;10487842;28;3355;-70
2022/09/04 03:55:30;;;;;;;;;;;14.50;99.90;;;13.65;100.00;95803.03;10484591;28;2426;-69
2022/09/04 04:00:33;;;;;;;;;;;14.40;99.90;;;13.55;100.00;95806.69;10480677;28;3531;-69
2022/09/04 04:05:36;;;;;;;;;;;14.40;99.90;;;13.56;100.00;95811.00;10482445;28;3331;-69
2022/09/04 04:10:39;;;;;;;;;;;14.50;99.90;;;13.59;100.00;95817.69;10483823;28;2523;-72
2022/09/04 04:15:42;;;;;;;;;;;14.40;99.90;;;13.74;100.00;95817.47;10482351;28;3437;-74
2022/09/04 04:20:45;;;;;;;;;;;14.40;99.90;;;13.71;100.00;95818.88;10468487;28;3354;-71
2022/09/04 04:25:49;;;;;;;;;;;14.50;99.90;;;13.70;100.00;95827.28;10479381;28;2486;-70
2022/09/04 04:30:54;;;;;;;;;;;14.60;99.90;;;13.64;100.00;95829.25;10481621;28;2632;-71
2022/09/04 04:35:57;;;;;;;;;;;14.60;99.90;;;13.72;100.00;95830.47;10481475;28;2460;-71
2022/09/04 04:41:00;;;;;;;;;;;14.60;99.90;;;13.62;100.00;95846.84;10481468;28;2391;-70
2022/09/04 04:46:03;;;;;;;;;;;14.50;99.90;;;13.79;100.00;95844.41;10483120;28;3308;-72
2022/09/04 04:51:06;;;;;;;;;;;14.50;99.90;;;13.90;100.00;95851.28;10482270;28;2544;-71
2022/09/04 04:56:12;;;;;;;;;;;14.60;99.90;;;14.07;100.00;95861.59;10478634;28;2506;-73
2022/09/04 05:01:17;;;;;;;;;;;14.80;99.90;;;14.05;100.00;95871.88;10482452;28;2504;-74
2022/09/04 05:06:23;;;;;;;;;;;14.80;99.90;;;14.10;100.00;95879.91;10460664;28;2414;-74
2022/09/04 05:11:25;;;;;;;;;;;14.80;99.90;;;13.94;100.00;95876.66;10469819;28;3200;-72
2022/09/04 05:16:28;;;;;;;;;;;14.80;99.90;;;13.92;100.00;95884.22;10480189;28;2467;-71
2022/09/04 05:21:31;;;;;;;;;;;14.80;99.90;;;13.95;100.00;95894.47;10478606;28;2575;-71
2022/09/04 05:26:34;;;;;;;;;;;14.70;99.90;;;13.85;100.00;95899.19;10482591;28;3311;-71
2022/09/04 05:31:37;;;;;;;;;;;14.70;99.90;;;13.94;100.00;95903.66;10481737;28;2503;-74
2022/09/04 05:36:40;;;;;;;;;;;14.60;99.90;;;14.13;100.00;95906.38;10479327;28;3255;-72
2022/09/04 05:41:45;;;;;;;;;;;14.80;99.90;;;14.16;100.00;95921.19;10481924;28;2421;-71
2022/09/04 05:46:48;;;;;;;;;;;14.90;99.90;;;14.42;100.00;95927.84;10492236;28;3363;-71
2022/09/04 05:51:54;;;;;;;;;;;15.00;99.90;;;14.99;100.00;95912.31;10488899;28;2579;-72
2022/09/04 05:56:57;;;;;;;;;;;15.40;99.90;;;15.48;100.00;95910.06;10489301;28;3279;-72
2022/09/04 06:02:00;;;;;;;;;;;15.90;99.90;;;15.81;100.00;95905.34;10486686;28;2430;-70
2022/09/04 06:07:04;;;;;;;;;;;16.10;99.90;;;16.04;100.00;95917.88;10478634;28;3446;-71
2022/09/04 06:12:07;;;;;;;;;;;16.40;99.90;;;16.41;100.00;95924.06;10488099;28;3394;-72
2022/09/04 06:17:10;;;;;;;;;;;16.70;99.90;;;16.63;100.00;95929.53;10489851;28;3354;-75
2022/09/04 06:22:13;;;;;;;;;;;17.00;99.90;;;16.69;100.00;95924.78;10491726;28;3276;-75
2022/09/04 06:27:15;;;;;;;;;;;17.20;99.90;;;16.96;100.00;95934.72;10492006;28;2591;-71
2022/09/04 06:32:18;;;;;;;;;;;17.30;99.90;;;17.22;100.00;95943.03;10484294;28;2486;-70
2022/09/04 06:37:21;;;;;;;;;;;17.60;99.90;;;17.39;100.00;95947.75;10484519;28;2433;-70
2022/09/04 06:42:24;;;;;;;;;;;17.80;99.90;;;17.73;100.00;95950.63;10485296;28;3420;-69
2022/09/04 06:47:27;;;;;;;;;;;18.00;99.90;;;17.79;100.00;95957.53;10489238;28;3291;-69
2022/09/04 06:52:30;;;;;;;;;;;18.20;99.90;;;17.95;100.00;95957.91;10485503;28;3455;-69
2022/09/04 06:57:34;;;;;;;;;;;18.40;99.90;;;18.39;100.00;95956.06;10482679;28;3272;-70
2022/09/04 07:02:36;;;;;;;;;;;18.60;99.90;;;18.65;100.00;95953.38;10483470;28;3304;-70
2022/09/04 07:07:40;;;;;;;;;;;18.90;99.90;;;18.94;100.00;95960.09;10485501;28;3312;-70
2022/09/04 07:12:42;;;;;;;;;;;19.10;99.90;;;18.77;100.00;95953.56;10482252;28;2552;-71
2022/09/04 07:17:46;;;;;;;;;;;19.30;99.90;;;19.21;100.00;95951.53;10483985;28;3342;-70
2022/09/04 07:22:53;;;;;;;;;;;19.40;99.90;;;19.62;100.00;95967.34;10485158;28;3315;-71
2022/09/04 07:27:56;;;;;;;;;;;19.70;99.90;;;19.75;100.00;95965.53;10485475;28;2511;-71
2022/09/04 07:32:59;;;;;;;;;;;20.00;99.90;;;19.85;100.00;95969.78;10475126;28;3346;-71
2022/09/04 07:38:04;;;;;;;;;;;20.00;99.90;;;19.97;100.00;95978.88;10477923;28;3256;-72
2022/09/04 07:43:07;;;;;;;;;;;20.20;99.90;;;20.09;100.00;95978.19;10481698;28;3370;-71
2022/09/04 07:48:10;;;;;;;;;;;20.40;99.90;;;20.44;97.57;95981.53;10486638;28;2429;-69
2022/09/04 07:53:13;;;;;;;;;;;20.50;99.90;;;20.48;96.98;95979.75;10481775;28;3368;-71
2022/09/04 07:58:17;;;;;;;;;;;20.70;99.90;;;20.68;93.98;95980.13;10466275;28;2741;-71
2022/09/04 08:03:20;;;;;;;;;;;20.90;99.90;;;20.78;93.60;96001.53;10484270;28;3418;-70
2022/09/04 08:08:23;;;;;;;;;;;21.00;99.90;;;20.95;93.73;96012.34;10483311;28;3282;-71
2022/09/04 08:13:26;;;;;;;;;;;21.10;99.90;;;20.85;97.36;96015.47;10479954;28;3335;-71
2022/09/04 08:18:29;;;;;;;;;;;21.30;99.90;;;20.96;93.97;96015.88;10481244;28;2409;-70
2022/09/04 08:23:32;;;;;;;;;;;21.40;99.90;;;21.16;93.15;96019.72;10482671;28;2523;-71
2022/09/04 08:28:35;;;;;;;;;;;21.50;99.90;;;21.16;93.30;96017.00;10488667;28;2456;-71
2022/09/04 08:33:39;;;;;;;;;;;21.70;99.90;;;20.96;92.90;96024.06;10482656;28;3507;-70
2022/09/04 08:38:42;;;;;;;;;;;21.50;99.90;;;21.08;95.02;96024.13;10486995;28;2479;-71
2022/09/04 08:43:44;;;;;;;;;;;21.40;99.90;;;21.44;90.53;96029.00;10461743;28;3479;-70
2022/09/04 08:48:47;;;;;;;;;;;21.70;99.90;;;21.38;90.40;96024.88;10484592;28;2467;-70
2022/09/04 08:53:50;;;;;;;;;;;21.80;99.90;;;21.60;90.45;96026.41;10478263;28;3272;-69
2022/09/04 08:58:53;;;;;;;;;;;21.80;99.90;;;21.79;87.29;96031.34;10477269;28;3271;-69
2022/09/04 09:03:57;;;;;;;;;;;22.00;99.90;;;21.78;88.64;96037.97;10479638;28;3125;-72
2022/09/04 09:09:00;;;;;;;;;;;22.10;99.90;;;22.09;82.99;96035.53;10485602;28;3046;-72
2022/09/04 09:14:05;;;;;;;;;;;22.40;99.90;;;22.05;84.14;96031.03;10479736;28;3171;-72
2022/09/04 09:19:08;;;;;;;;;;;22.30;99.90;;;22.05;82.77;96036.50;10470368;28;2173;-71
2022/09/04 09:24:11;;;;;;;;;;;22.50;99.90;;;22.18;81.60;96037.34;10489460;28;2287;-70
2022/09/04 09:29:15;;;;;;;;;;;22.50;99.90;;;22.60;80.01;96029.72;10485456;28;3218;-71
2022/09/04 09:34:17;;;;;;;;;;;22.80;99.90;;;22.80;79.33;96027.97;10488875;28;2275;-72
2022/09/04 09:39:21;;;;;;;;;;;;;;;22.75;80.41;96030.94;10487262;28;2916;-71
2022/09/04 09:44:25;;;;;;;;;;;23.20;99.90;;;22.74;78.41;96034.81;10488629;28;3000;-71
2022/09/04 09:49:28;;;;;;;;;;;23.20;99.90;;;22.36;75.76;96016.81;10492120;28;3101;-78
2022/09/04 09:54:31;;;;;;;;;;;23.00;99.90;;;21.94;81.67;96019.72;10487430;28;3185;-76
2022/09/04 09:59:34;;;;;;;;;;;22.90;99.90;;;22.04;78.58;96018.50;10490260;28;3054;-71
2022/09/04 10:04:38;;;;;;;;;;;22.90;99.90;;;22.61;73.80;96015.66;10487668;28;2210;-70
2022/09/04 10:09:41;;;;;;;;;;;23.00;99.90;;;22.77;73.53;96012.19;10483966;28;3212;-72
2022/09/04 10:14:44;;;;;;;;;;;22.90;99.90;;;23.20;69.24;96009.56;10477998;28;3063;-70
2022/09/04 10:19:50;;;;;;;;;;;23.30;99.90;;;23.42;65.84;96015.66;10486532;28;3165;-71
2022/09/04 10:24:53;;;;;;;;;;;23.70;99.90;;;23.50;64.11;96022.94;10484717;28;3098;-70
2022/09/04 10:29:56;;;;;;;;;;;24.00;99.90;;;23.76;66.17;96022.50;10485762;28;2148;-72
2022/09/04 10:34:59;;;;;;;;;;;24.20;99.90;;;23.95;61.38;96021.78;10484022;28;3073;-71
2022/09/04 10:45:30;;;;;;;;;;;24.40;99.90;;;23.42;63.91;96021.97;10447532;28;3234;-71
2022/09/04 10:50:34;;;;;;;;;;;24.00;99.90;;;23.36;62.87;96017.06;10480481;28;2155;-73
2022/09/04 10:55:37;;;;;;;;;;;23.90;99.90;;;23.05;61.01;96015.00;10480827;28;3061;-71
2022/09/04 11:00:48;;;;;;;;;;;23.80;99.90;;;22.91;60.38;96018.16;10482458;28;2103;-72
2022/09/04 11:05:51;;;;;;;;;;;23.70;99.90;;;23.02;60.49;96019.22;10480755;28;3391;-72
2022/09/04 11:10:55;;;;;;;;;;;23.60;99.90;;;22.75;64.41;96025.44;10483109;28;3097;-72
2022/09/04 11:15:58;;;;;;;;;;;23.40;99.90;;;22.96;63.46;96022.56;10485542;28;2222;-71
2022/09/04 11:21:01;;;;;;;;;;;23.30;99.90;;;23.87;57.66;96020.03;10486027;28;3662;-70
2022/09/04 11:26:05;;;;;;;;;;;23.90;99.90;;;24.36;56.05;96008.69;10483352;28;3035;-70
2022/09/04 11:31:19;;;;;;;;;;;24.50;99.90;;;24.94;56.60;96004.13;10484753;28;3188;-71
2022/09/04 11:36:22;;;;;;;;;;;25.00;99.90;;;25.03;53.39;96003.91;10484376;28;3045;-71
2022/09/04 11:41:27;;;;;;;;;;;25.40;99.90;;;24.99;53.87;96008.53;10481813;28;2199;-72
2022/09/04 11:46:31;;;;;;;;;;;25.60;99.90;;;23.90;54.82;96013.81;10469291;28;2111;-71
2022/09/04 11:51:39;;;;;;;;;;;25.00;99.90;;;23.78;56.95;96011.94;10476622;28;3155;-72
2022/09/04 11:56:42;;;;;;;;;;;24.50;99.90;;;23.88;54.32;96008.69;10484087;28;3023;-70
2022/09/04 12:01:45;;;;;;;;;;;24.30;99.90;;;24.27;52.22;96012.41;10472507;28;2231;-69
2022/09/04 12:06:50;;;;;;;;;;;24.50;99.90;;;23.82;52.85;96018.34;10477813;28;3052;-72
2022/09/04 12:11:55;;;;;;;;;;;24.60;99.90;;;23.48;53.56;96019.75;10478335;28;3049;-72
2022/09/04 12:16:58;;;;;;;;;;;24.30;99.90;;;23.81;54.48;96010.47;10476244;28;3043;-70
2022/09/04 12:22:01;;;;;;;;;;;24.30;99.90;;;24.27;55.44;96009.66;10474940;28;3372;-70
2022/09/04 12:27:04;;;;;;;;;;;24.70;99.90;;;24.01;55.58;96003.91;10472610;28;3055;-72
2022/09/04 12:32:07;;;;;;;;;;;24.70;99.90;;;23.94;53.93;95999.03;10465186;28;3090;-74
2022/09/04 12:37:20;;;;;;;;;;;24.60;99.90;;;23.75;53.68;96006.38;10467349;28;2966;-75
2022/09/04 12:42:24;;;;;;;;;;;24.50;99.90;;;24.12;52.46;96010.47;10481713;28;2195;-74
2022/09/04 12:47:27;;;;;;;;;;;24.60;99.90;;;24.51;49.78;96010.63;10478435;28;3003;-72
2022/09/04 12:52:30;;;;;;;;;;;25.00;99.90;;;25.14;48.92;96007.72;10476748;28;3026;-72
2022/09/04 12:57:33;;;;;;;;;;;25.30;99.90;;;25.67;46.26;96010.72;10484414;28;3110;-73
2022/09/04 13:02:35;;;;;;;;;;;25.90;99.90;;;25.37;46.83;96013.28;10481414;28;3050;-71
2022/09/04 13:07:39;;;;;;;;;;;25.90;99.90;;;24.39;49.42;96016.22;10480406;28;2131;-71
2022/09/04 13:12:42;;;;;;;;;;;25.50;99.90;;;24.19;50.88;96009.84;10480329;28;2241;-75
2022/09/04 13:17:47;;;;;;;;;;;25.00;99.90;;;24.28;50.30;96013.97;10487715;28;3119;-75
2022/09/04 13:22:49;;;;;;;;;;;25.00;99.90;;;24.06;50.77;96016.59;10483782;28;2199;-72
2022/09/04 13:27:52;;;;;;;;;;;25.00;99.90;;;23.90;51.11;96019.31;10488560;28;3031;-71
2022/09/04 13:32:55;;;;;;;;;;;24.70;99.90;;;24.22;48.98;96014.63;10480563;28;3162;-71
2022/09/04 13:37:59;;;;;;;;;;;24.80;99.90;;;24.30;49.26;96010.88;10476088;28;3064;-71
2022/09/04 13:43:03;;;;;;;;;;;24.90;99.90;;;24.42;49.14;96015.50;10476914;28;3049;-71
2022/09/04 13:48:06;;;;;;;;;;;25.00;99.90;;;24.38;47.32;96018.19;10469282;28;2986;-72
2022/09/04 13:53:10;;;;;;;;;;;25.00;99.90;;;24.16;47.32;96016.81;10479903;28;3059;-71
2022/09/04 13:58:13;;;;;;;;;;;25.00;99.90;;;24.59;46.35;96020.63;10482431;28;3151;-71
2022/09/04 14:03:16;;;;;;;;;;;25.00;99.90;;;24.71;45.29;96026.00;10480792;28;2263;-71
2022/09/04 14:08:19;;;;;;;;;;;25.20;99.90;;;24.75;45.56;96013.16;10486731;28;3019;-71
2022/09/04 14:13:23;;;;;;;;;;;25.40;99.90;;;24.92;42.54;96002.88;10482660;28;2409;-73
2022/09/04 14:18:26;;;;;;;;;;;25.40;99.90;;;24.72;43.24;96008.34;10487757;28;2149;-72
2022/09/04 14:23:29;;;;;;;;;;;25.40;99.90;;;24.76;43.75;96006.50;10482855;28;3067;-73
2022/09/04 14:28:32;;;;;;;;;;;25.40;99.90;;;25.04;42.42;96005.50;10491816;28;2214;-72
2022/09/04 14:33:35;;;;;;;;;;;25.60;99.90;;;24.95;42.17;96002.97;10486318;28;3198;-71
2022/09/04 14:38:39;;;;;;;;;;;25.60;99.90;;;24.71;46.18;96004.03;10489890;28;3062;-70
2022/09/04 14:43:43;;;;;;;;;;;25.60;99.90;;;24.42;45.54;96001.78;10485315;28;3039;-71
2022/09/04 14:48:49;;;;;;;;;;;25.40;99.90;;;24.45;46.67;96007.34;10490919;28;3034;-71
2022/09/04 14:53:54;;;;;;;;;;;25.20;99.90;;;24.40;45.68;96012.31;10482039;28;2262;-71
2022/09/04 14:58:57;;;;;;;;;;;25.20;99.90;;;24.30;46.89;96005.38;10494325;28;2999;-71
2022/09/04 15:04:00;;;;;;;;;;;25.00;99.90;;;24.28;45.63;96016.72;10487422;28;3034;-72
2022/09/04 15:09:03;;;;;;;;;;;25.00;99.90;;;24.22;46.83;96004.41;10489730;28;2219;-70
2022/09/04 15:14:06;;;;;;;;;;;25.00;99.90;;;24.07;44.35;96002.50;10470399;28;3313;-72
2022/09/04 15:19:09;;;;;;;;;;;24.80;99.90;;;23.95;44.50;96005.31;10486620;28;2986;-69
2022/09/04 15:24:11;;;;;;;;;;;24.80;99.90;;;23.82;45.09;96007.34;10485902;28;3061;-71
2022/09/04 15:29:15;;;;;;;;;;;24.70;99.90;;;23.81;45.05;96003.03;10484987;28;3036;-72
2022/09/04 15:34:17;;;;;;;;;;;24.60;99.90;;;23.73;45.27;96010.28;10480809;28;3138;-72
2022/09/04 15:39:20;;;;;;;;;;;24.60;99.90;;;23.59;45.18;96012.59;10485605;28;3081;-72
2022/09/04 15:44:23;;;;;;;;;;;24.50;99.90;;;23.43;46.26;96007.09;10466520;28;3228;-71
2022/09/04 15:49:31;;;;;;;;;;;24.30;99.90;;;23.38;46.51;96009.28;10485004;28;3022;-72
2022/09/04 15:54:34;;;;;;;;;;;24.20;99.90;;;23.32;45.68;96011.47;10483873;28;3057;-74
2022/09/04 15:59:37;;;;;;;;;;;24.10;99.90;;;23.32;46.71;96014.22;10484175;28;3080;-74
2022/09/04 16:04:41;;;;;;;;;;;24.10;99.90;;;23.26;44.86;96009.34;10481745;28;2934;-74
2022/09/04 16:09:44;;;;;;;;;;;24.10;99.90;;;23.11;46.56;96011.69;10482757;28;3046;-76
2022/09/04 16:14:47;;;;;;;;;;;24.00;99.90;;;23.00;46.28;96016.06;10478229;28;2986;-72
2022/09/04 16:19:51;;;;;;;;;;;23.90;99.90;;;22.86;48.28;96010.13;10480708;28;3011;-71
2022/09/04 16:24:55;;;;;;;;;;;23.80;99.90;;;22.65;49.37;96016.56;10474501;28;3073;-70
2022/09/04 16:29:58;;;;;;;;;;;23.60;99.90;;;22.55;47.91;96022.50;10479109;28;3123;-71
2022/09/04 16:35:02;;;;;;;;;;;23.40;99.90;;;22.36;48.63;96014.88;10472442;28;2262;-71
2022/09/04 16:40:06;;;;;;;;;;;23.30;99.90;;;22.39;48.49;96018.84;10480056;28;3049;-77
2022/09/04 16:45:09;;;;;;;;;;;23.20;99.90;;;22.31;48.63;96025.25;10479233;28;3101;-78
2022/09/04 16:50:12;;;;;;;;;;;23.20;99.90;;;22.20;48.23;96026.84;10475692;28;2194;-71
2022/09/04 16:55:16;;;;;;;;;;;23.10;99.90;;;22.06;48.49;96022.47;10480515;28;2198;-71
2022/09/04 17:00:21;;;;;;;;;;;23.00;99.90;;;21.97;47.71;96024.53;10482046;28;2170;-71
2022/09/04 17:05:24;;;;;;;;;;;22.90;99.90;;;21.73;49.10;96024.50;10481955;28;3118;-72
2022/09/04 17:10:30;;;;;;;;;;;22.80;99.90;;;21.79;49.78;96031.34;10484587;28;3083;-71
2022/09/04 17:15:38;;;;;;;;;;;22.70;99.90;;;21.62;47.41;96034.25;10481458;28;3066;-71
2022/09/04 17:20:47;;;;;;;;;;;22.60;99.90;;;21.55;46.34;96032.88;10477821;28;3059;-74
2022/09/04 17:26:10;;;;;;;;;;;22.50;99.90;;;21.59;46.99;96033.00;10474845;28;3021;-70
2022/09/04 17:31:33;;;;;;;;;;;22.40;99.90;;;21.55;47.22;96035.63;10485968;28;2214;-74
2022/09/04 17:36:36;;;;;;;;;;;22.40;99.90;;;21.33;48.26;96044.22;10480686;28;2191;-73
2022/09/04 17:41:59;;;;;;;;;;;22.20;99.90;;;21.26;49.18;96038.47;10479697;28;2218;-72
2022/09/04 17:47:11;;;;;;;;;;;22.20;99.90;;;21.17;49.94;96045.91;10467542;28;3180;-71
2022/09/04 17:52:15;;;;;;;;;;;22.00;99.90;;;20.82;51.10;96040.75;10490437;28;2176;-71
2022/09/04 17:57:18;;;;;;;;;;;21.90;99.90;;;20.52;53.21;96054.41;10488738;28;2214;-71
2022/09/04 18:02:22;;;;;;;;;;;21.70;99.90;;;20.25;57.06;96065.78;10486804;28;2342;-71
2022/09/04 18:07:28;;;;;;;;;;;21.50;99.90;;;20.06;59.79;96068.91;10484575;28;3064;-70
2022/09/04 18:12:52;;;;;;;;;;;21.20;99.90;;;19.88;62.60;96086.47;10466096;28;2149;-69
2022/09/04 18:17:58;;;;;;;;;;;21.10;99.90;;;19.73;62.60;96089.72;10485089;28;2180;-71
2022/09/04 18:23:01;;;;;;;;;;;20.90;99.90;;;19.57;65.94;96095.63;10470071;28;3030;-71
2022/09/04 18:28:04;;;;;;;;;;;20.80;99.90;;;19.71;67.43;96101.72;10488430;28;2238;-70
2022/09/04 18:33:16;;;;;;;;;;;20.60;99.90;;;19.51;66.87;96101.59;10486819;28;3124;-71
2022/09/04 18:38:40;;;;;;;;;;;20.50;99.90;;;19.26;69.32;96106.72;10482538;28;2990;-71
2022/09/04 18:43:43;;;;;;;;;;;20.40;99.90;;;19.23;72.24;96110.09;10479512;28;3061;-71
2022/09/04 18:49:06;;;;;;;;;;;20.20;99.90;;;19.22;75.03;96111.22;10481135;28;3118;-71
2022/09/04 18:54:31;;;;;;;;;;;20.10;99.90;;;19.07;75.18;96117.13;10482378;28;3042;-71
2022/09/04 18:59:34;;;;;;;;;;;20.00;99.90;;;19.02;79.10;96122.72;10487910;28;2186;-71
2022/09/04 19:04:37;;;;;;;;;;;20.00;99.90;;;19.17;79.10;96128.53;10486427;28;2135;-73
2022/09/04 19:09:40;;;;;;;;;;;20.00;99.90;;;18.97;80.82;96131.88;10483351;28;2171;-71
2022/09/04 19:14:59;;;;;;;;;;;19.90;99.90;;;18.75;80.83;96126.53;10487357;28;3022;-73
2022/09/04 19:20:03;;;;;;;;;;;19.80;99.90;;;18.74;84.45;96128.47;10478658;28;3010;-77
2022/09/04 19:25:10;;;;;;;;;;;19.60;99.90;;;18.82;85.23;96119.50;10479606;28;2378;-73
2022/09/04 19:30:13;;;;;;;;;;;19.70;99.90;;;18.83;86.77;96121.13;10478834;28;3036;-72
2022/09/04 19:35:28;;;;;;;;;;;19.00;99.90;;;18.78;88.80;96129.44;10482350;28;3050;-71
2022/09/04 19:40:31;;;;;;;;;;;19.60;99.90;;;18.80;88.45;96124.47;10478848;28;3110;-72
2022/09/04 19:45:54;;;;;;;;;;;19.70;99.90;;;18.75;89.88;96124.63;10474447;28;3065;-75
2022/09/04 19:51:17;;;;;;;;;;;19.60;99.90;;;18.67;91.07;96122.69;10479630;28;3217;-72
2022/09/04 19:56:40;;;;;;;;;;;19.60;99.90;;;18.59;92.18;96120.72;10479472;28;2299;-72
2022/09/04 20:02:10;;;;;;;;;;;19.60;99.90;;;18.66;93.20;96121.06;10475545;28;2965;-72
2022/09/04 20:07:13;;;;;;;;;;;19.60;99.90;;;18.68;93.28;96129.72;10483094;28;3026;-73
2022/09/04 20:12:16;;;;;;;;;;;19.50;99.90;;;18.55;94.76;96119.72;10479773;28;3037;-74
2022/09/04 20:17:19;;;;;;;;;;;;;;;18.53;96.08;96121.97;10477432;28;3060;-74
2022/09/04 20:22:22;;;;;;;;;;;19.70;99.90;;;18.50;96.65;96119.88;10477651;28;3166;-77
2022/09/04 20:27:25;;;;;;;;;;;19.40;99.90;;;18.37;98.53;96118.88;10481294;28;2991;-72
2022/09/04 20:32:29;;;;;;;;;;;19.30;99.90;;;18.26;100.00;96118.38;10479864;28;3172;-71
2022/09/04 20:37:32;;;;;;;;;;;19.10;99.90;;;18.19;100.00;96120.72;10475621;28;3121;-74
2022/09/04 20:42:36;;;;;;;;;;;19.30;99.90;;;18.06;100.00;96124.34;10478282;28;3010;-70
2022/09/04 20:47:39;;;;;;;;;;;19.10;99.90;;;17.90;100.00;96125.88;10482100;28;3160;-70
2022/09/04 20:53:02;;;;;;;;;;;18.90;99.90;;;17.85;100.00;96123.28;10462275;28;2243;-72
2022/09/04 20:58:12;;;;;;;;;;;18.80;99.90;;;17.80;100.00;96122.28;10481325;28;3027;-73
2022/09/04 21:03:35;;;;;;;;;;;18.80;99.90;;;17.83;100.00;96121.66;10481965;28;3005;-70
2022/09/04 21:08:38;;;;;;;;;;;18.70;99.90;;;17.79;100.00;96114.44;10478324;28;3077;-70
2022/09/04 21:13:41;;;;;;;;;;;18.80;99.90;;;17.72;100.00;96122.22;10481453;28;3178;-71
2022/09/04 21:18:45;;;;;;;;;;;18.70;99.90;;;17.67;100.00;96123.13;10480738;28;2202;-74
2022/09/04 21:24:08;;;;;;;;;;;18.60;99.90;;;17.87;100.00;96123.75;10479837;28;3042;-72
2022/09/04 21:29:14;;;;;;;;;;;18.60;99.90;;;17.97;100.00;96128.94;10480306;28;3010;-71
2022/09/04 21:34:17;;;;;;;;;;;18.80;99.90;;;17.88;100.00;96130.78;10480481;28;3041;-72
2022/09/04 21:39:20;;;;;;;;;;;19.00;99.90;;;17.77;100.00;96144.66;10479334;28;2151;-72
2022/09/04 21:44:23;;;;;;;;;;;18.80;99.90;;;17.81;100.00;96142.94;10481362;28;2174;-74
2022/09/04 21:49:25;;;;;;;;;;;18.60;99.90;;;17.71;100.00;96148.63;10482316;28;2187;-72
2022/09/04 21:54:28;;;;;;;;;;;18.50;99.90;;;17.67;100.00;96155.75;10479580;28;3045;-71
2022/09/04 21:59:51;;;;;;;;;;;18.60;99.90;;;17.77;100.00;96150.09;10482700;28;3032;-72
2022/09/04 22:05:17;;;;;;;;;;;18.60;99.90;;;17.69;100.00;96147.31;10477166;28;2203;-71
2022/09/04 22:10:20;;;;;;;;;;;18.60;99.90;;;17.64;100.00;96156.38;10477767;28;3296;-72
2022/09/04 22:15:43;;;;;;;;;;;18.60;99.90;;;17.68;100.00;96157.34;10479392;28;3030;-72
2022/09/04 22:20:46;;;;;;;;;;;18.40;99.90;;;17.57;100.00;96147.84;10483246;28;2999;-71
2022/09/04 22:25:49;;;;;;;;;;;18.60;99.90;;;17.45;100.00;96144.88;10477227;28;3037;-71
2022/09/04 22:30:59;;;;;;;;;;;18.40;99.90;;;17.37;100.00;96151.03;10479996;28;2147;-71
2022/09/04 22:36:02;;;;;;;;;;;18.30;99.90;;;17.20;100.00;96147.09;10488455;28;2963;-71
2022/09/04 22:41:05;;;;;;;;;;;18.10;99.90;;;17.16;100.00;96154.22;10484514;28;2174;-71
2022/09/04 22:46:08;;;;;;;;;;;18.10;99.90;;;17.12;100.00;96158.69;10485087;28;3121;-71
2022/09/04 22:51:10;;;;;;;;;;;18.00;99.90;;;17.13;100.00;96152.13;10487942;28;2182;-71
2022/09/04 22:56:13;;;;;;;;;;;18.00;99.90;;;17.07;100.00;96147.94;10485882;28;3086;-70
2022/09/04 23:01:26;;;;;;;;;;;17.90;99.90;;;17.01;100.00;96154.56;10480447;28;3189;-70
2022/09/04 23:06:38;;;;;;;;;;;18.00;99.90;;;16.97;100.00;96142.69;10487904;28;3171;-71
2022/09/04 23:12:01;;;;;;;;;;;18.00;99.90;;;16.93;100.00;96156.09;10485066;28;2194;-73
2022/09/04 23:17:24;;;;;;;;;;;17.80;99.90;;;16.84;100.00;96149.75;10488330;28;2159;-70
2022/09/04 23:22:27;;;;;;;;;;;17.80;99.90;;;16.79;100.00;96162.66;10483847;28;3049;-71